Time;durP1;ratioP1;P1;durP2;ratioP2;P2;SDS_P1;SDS_P2;PMS_P1;PMS_P2;Temp;Humidity;BMP_temperature;BMP_pressure;BME280_temperature;BME280_humidity;BME280_pressure;Samples;Min_cycle;Max_cycle;Signal;HPM_P1;HPM_P2
2023/03/25 00:01:32;;;;;;;;;;;;;;;;;;7368111;19;803;-65
2023/03/25 00:04:00;;;;;;;;;;;;;;;;;;7365546;19;832;-65
2023/03/25 00:06:28;;;;;;;;;;;;;;;;;;7365302;19;1237;-63
2023/03/25 00:08:56;;;;;;;;;;;;;;;;;;7364033;19;833;-64
2023/03/25 00:11:24;;;;;;;;;;;;;;;;;;7367404;19;1826;-65
2023/03/25 00:13:53;;;;;;;;;;;;;;;;;;7366130;19;807;-64
2023/03/25 00:16:21;;;;;;;;;;;;;;;;;;7362995;19;1254;-67
2023/03/25 00:18:50;;;;;;;;;;;;;;;;;;7365940;19;810;-65
2023/03/25 00:21:18;;;;;;;;;;;;;;;;;;7367248;19;810;-64
2023/03/25 00:23:46;;;;;;;;;;;;;;;;;;7366308;19;861;-65
2023/03/25 00:26:14;;;;;;;;;;;;;;;;;;7364863;19;1314;-65
2023/03/25 00:28:43;;;;;;;;;;;;;;;;;;7366005;19;790;-64
2023/03/25 00:31:11;;;;;;;;;;;;;;;;;;7364710;19;895;-65
2023/03/25 00:33:43;;;;;;;;;;;;;;;;;;7362025;19;1869;-66
2023/03/25 00:36:13;;;;;;;;;;;;;;;;;;7363747;19;1381;-65
2023/03/25 00:38:42;;;;;;;;;;;;;;;;;;7364677;19;846;-66
2023/03/25 00:41:10;;;;;;;;;;;;;;;;;;7364470;19;858;-66
2023/03/25 00:43:38;;;;;;;;;;;;;;;;;;7364214;19;867;-65
2023/03/25 00:46:06;;;;;;;;;;;;;;;;;;7363633;19;1425;-66
2023/03/25 00:48:35;;;;;;;;;;;;;;;;;;7364693;19;766;-65
2023/03/25 00:51:07;;;;;;;;;;;;;;;;;;7365625;19;801;-64
2023/03/25 00:53:35;;;;;;;;;;;;;;;;;;7365120;19;1865;-64
2023/03/25 00:56:03;;;;;;;;;;;;;;;;;;7362593;19;1349;-64
2023/03/25 00:58:32;;;;;;;;;;;;;;;;;;7363664;19;802;-64
2023/03/25 01:01:01;;;;;;;;;;;;;;;;;;7365431;19;787;-64
2023/03/25 01:03:30;;;;;;;;;;;;;;;;;;7364781;19;881;-64
2023/03/25 01:05:58;;;;;;;;;;;;;;;;;;7362436;19;1278;-65
2023/03/25 01:08:28;;;;;;;;;;;;;;;;;;7363298;19;862;-64
2023/03/25 01:10:56;;;;;;;;;;;;;;;;;;7366482;19;818;-65
2023/03/25 01:13:24;;;;;;;;;;;;;;;;;;7363030;19;1850;-64
2023/03/25 01:15:52;;;;;;;;;;;;;;;;;;7362276;19;1332;-64
2023/03/25 01:18:21;;;;;;;;;;;;;;;;;;7364306;19;826;-65
2023/03/25 01:20:49;;;;;;;;;;;;;;;;;;7362727;19;850;-64
2023/03/25 01:23:17;;;;;;;;;;;;;;;;;;7362948;19;803;-65
2023/03/25 01:25:45;;;;;;;;;;;;;;;;;;7362916;19;1294;-66
2023/03/25 01:28:13;;;;;;;;;;;;;;;;;;7362564;19;799;-66
2023/03/25 01:30:42;;;;;;;;;;;;;;;;;;7362968;19;831;-65
2023/03/25 01:33:11;;;;;;;;;;;;;;;;;;7361856;19;1873;-65
2023/03/25 01:35:39;;;;;;;;;;;;;;;;;;7361251;19;1341;-66
2023/03/25 01:38:07;;;;;;;;;;;;;;;;;;7364183;19;846;-66
2023/03/25 01:40:35;;;;;;;;;;;;;;;;;;7367095;19;1295;-66
2023/03/25 01:43:03;;;;;;;;;;;;;;;;;;7363515;19;777;-66
2023/03/25 01:45:31;;;;;;;;;;;;;;;;;;7362486;19;1286;-66
2023/03/25 01:48:00;;;;;;;;;;;;;;;;;;7363481;19;873;-65
2023/03/25 01:50:28;;;;;;;;;;;;;;;;;;7363601;19;754;-65
2023/03/25 01:52:56;;;;;;;;;;;;;;;;;;7363551;19;1847;-65
2023/03/25 01:55:26;;;;;;;;;;;;;;;;;;7363072;19;1275;-66
2023/03/25 01:57:54;;;;;;;;;;;;;;;;;;7362457;19;764;-66
2023/03/25 02:00:22;;;;;;;;;;;;;;;;;;7363569;19;811;-66
2023/03/25 02:02:51;;;;;;;;;;;;;;;;;;7363966;19;803;-66
2023/03/25 02:05:19;;;;;;;;;;;;;;;;;;7362821;19;1270;-64
2023/03/25 02:07:48;;;;;;;;;;;;;;;;;;7366557;19;1237;-65
2023/03/25 02:10:16;;;;;;;;;;;;;;;;;;7362919;19;853;-66
2023/03/25 02:12:45;;;;;;;;;;;;;;;;;;7360954;19;1852;-65
2023/03/25 02:15:14;;;;;;;;;;;;;;;;;;7360312;19;1395;-64
2023/03/25 02:17:42;;;;;;;;;;;;;;;;;;7361275;19;865;-64
2023/03/25 02:20:12;;;;;;;;;;;;;;;;;;7362899;19;881;-65
2023/03/25 02:22:40;;;;;;;;;;;;;;;;;;7361930;19;789;-66
2023/03/25 02:25:09;;;;;;;;;;;;;;;;;;7361672;19;1310;-66
2023/03/25 02:27:40;;;;;;;;;;;;;;;;;;7361246;19;806;-66
2023/03/25 02:30:08;;;;;;;;;;;;;;;;;;7361610;19;745;-66
2023/03/25 02:32:37;;;;;;;;;;;;;;;;;;7365506;19;1845;-66
2023/03/25 02:35:05;;;;;;;;;;;;;;;;;;7368065;19;1439;-66
2023/03/25 02:37:33;;;;;;;;;;;;;;;;;;7369033;19;809;-66
2023/03/25 02:40:04;;;;;;;;;;;;;;;;;;7367736;19;911;-66
2023/03/25 02:42:32;;;;;;;;;;;;;;;;;;7368484;19;799;-65
2023/03/25 02:45:00;;;;;;;;;;;;;;;;;;7368398;19;1262;-66
2023/03/25 02:47:28;;;;;;;;;;;;;;;;;;7368467;19;833;-65
2023/03/25 02:49:57;;;;;;;;;;;;;;;;;;7369733;19;931;-65
2023/03/25 02:52:25;;;;;;;;;;;;;;;;;;7369379;19;1845;-64
2023/03/25 02:54:56;;;;;;;;;;;;;;;;;;7371720;19;1627;-65
2023/03/25 02:57:24;;;;;;;;;;;;;;;;;;7368876;19;861;-65
2023/03/25 02:59:52;;;;;;;;;;;;;;;;;;7367665;19;845;-65
2023/03/25 03:02:21;;;;;;;;;;;;;;;;;;7368833;19;779;-64
2023/03/25 03:04:49;;;;;;;;;;;;;;;;;;7369192;19;1238;-65
2023/03/25 03:07:18;;;;;;;;;;;;;;;;;;7368327;19;822;-66
2023/03/25 03:09:46;;;;;;;;;;;;;;;;;;7366994;19;908;-66
2023/03/25 03:12:14;;;;;;;;;;;;;;;;;;7368282;19;852;-63
2023/03/25 03:14:42;;;;;;;;;;;;;;;;;;7368010;19;1340;-65
2023/03/25 03:17:10;;;;;;;;;;;;;;;;;;7369018;19;830;-65
2023/03/25 03:19:39;;;;;;;;;;;;;;;;;;7366673;19;995;-65
2023/03/25 03:22:12;;;;;;;;;;;;;;;;;;7368683;19;866;-65
2023/03/25 03:24:41;;;;;;;;;;;;;;;;;;7367970;19;1317;-65
2023/03/25 03:27:10;;;;;;;;;;;;;;;;;;7368496;19;865;-65
2023/03/25 03:29:39;;;;;;;;;;;;;;;;;;7367764;19;862;-65
2023/03/25 03:32:07;;;;;;;;;;;;;;;;;;7370490;19;804;-65
2023/03/25 03:34:39;;;;;;;;;;;;;;;;;;7370412;19;1857;-65
2023/03/25 03:37:08;;;;;;;;;;;;;;;;;;7373718;19;754;-65
2023/03/25 03:39:36;;;;;;;;;;;;;;;;;;7372000;19;810;-65
2023/03/25 03:42:04;;;;;;;;;;;;;;;;;;7371262;19;754;-65
2023/03/25 03:44:32;;;;;;;;;;;;;;;;;;7370223;19;1351;-66
2023/03/25 03:47:00;;;;;;;;;;;;;;;;;;7371382;19;869;-67
2023/03/25 03:49:28;;;;;;;;;;;;;;;;;;7369837;19;777;-66
2023/03/25 03:51:57;;;;;;;;;;;;;;;;;;7368398;19;926;-66
2023/03/25 03:54:25;;;;;;;;;;;;;;;;;;7369175;19;1853;-65
2023/03/25 03:56:53;;;;;;;;;;;;;;;;;;7368040;19;868;-67
2023/03/25 03:59:21;;;;;;;;;;;;;;;;;;7366917;19;865;-65
2023/03/25 04:01:52;;;;;;;;;;;;;;;;;;7367272;19;811;-65
2023/03/25 04:04:22;;;;;;;;;;;;;;;;;;7367742;19;756;-65
2023/03/25 04:06:55;;;;;;;;;;;;;;;;;;7367487;19;826;-65
2023/03/25 04:09:26;;;;;;;;;;;;;;;;;;7366381;19;759;-65
2023/03/25 04:11:54;;;;;;;;;;;;;;;;;;7366737;19;762;-66
2023/03/25 04:14:22;;;;;;;;;;;;;;;;;;7364914;19;1834;-66
2023/03/25 04:16:52;;;;;;;;;;;;;;;;;;7366671;19;775;-65
2023/03/25 04:19:20;;;;;;;;;;;;;;;;;;7366702;19;936;-67
2023/03/25 04:21:48;;;;;;;;;;;;;;;;;;7366409;19;850;-66
2023/03/25 04:24:18;;;;;;;;;;;;;;;;;;7366664;19;821;-65
2023/03/25 04:26:48;;;;;;;;;;;;;;;;;;7362255;19;1388;-66
2023/03/25 04:29:17;;;;;;;;;;;;;;;;;;7365637;19;903;-66
2023/03/25 04:31:49;;;;;;;;;;;;;;;;;;7366099;19;707;-66
2023/03/25 04:34:19;;;;;;;;;;;;;;;;;;7364041;19;1877;-66
2023/03/25 04:36:48;;;;;;;;;;;;;;;;;;7361734;19;1290;-66
2023/03/25 04:39:21;;;;;;;;;;;;;;;;;;7365664;19;799;-66
2023/03/25 04:41:49;;;;;;;;;;;;;;;;;;7366403;19;736;-66
2023/03/25 04:44:17;;;;;;;;;;;;;;;;;;7365533;19;865;-66
2023/03/25 04:46:45;;;;;;;;;;;;;;;;;;7362826;19;1247;-66
2023/03/25 04:49:13;;;;;;;;;;;;;;;;;;7364515;19;866;-66
2023/03/25 04:51:43;;;;;;;;;;;;;;;;;;7365873;19;952;-67
2023/03/25 04:54:11;;;;;;;;;;;;;;;;;;7363171;19;1870;-65
2023/03/25 04:56:41;;;;;;;;;;;;;;;;;;7363050;19;1290;-65
2023/03/25 04:59:09;;;;;;;;;;;;;;;;;;7364500;19;861;-66
2023/03/25 05:01:40;;;;;;;;;;;;;;;;;;7365541;19;877;-67
2023/03/25 05:04:11;;;;;;;;;;;;;;;;;;7365289;19;904;-67
2023/03/25 05:06:40;;;;;;;;;;;;;;;;;;7361954;19;1394;-66
2023/03/25 05:09:08;;;;;;;;;;;;;;;;;;7364503;19;806;-65
2023/03/25 05:11:38;;;;;;;;;;;;;;;;;;7363641;19;793;-66
2023/03/25 05:14:06;;;;;;;;;;;;;;;;;;7362839;19;1858;-65
2023/03/25 05:16:34;;;;;;;;;;;;;;;;;;7361209;19;1277;-65
2023/03/25 05:19:02;;;;;;;;;;;;;;;;;;7364739;19;817;-66
2023/03/25 05:21:31;;;;;;;;;;;;;;;;;;7365141;19;956;-65
2023/03/25 05:24:00;;;;;;;;;;;;;;;;;;7364812;19;860;-66
2023/03/25 05:26:33;;;;;;;;;;;;;;;;;;7362207;19;1274;-66
2023/03/25 05:29:01;;;;;;;;;;;;;;;;;;7364526;19;845;-66
2023/03/25 05:31:29;;;;;;;;;;;;;;;;;;7364698;19;853;-66
2023/03/25 05:33:57;;;;;;;;;;;;;;;;;;7363245;19;1837;-67
2023/03/25 05:36:26;;;;;;;;;;;;;;;;;;7362019;19;1276;-68
2023/03/25 05:38:57;;;;;;;;;;;;;;;;;;7363805;19;845;-67
2023/03/25 05:41:31;;;;;;;;;;;;;;;;;;7364787;19;862;-66
2023/03/25 05:43:59;;;;;;;;;;;;;;;;;;7362650;19;790;-67
2023/03/25 05:46:28;;;;;;;;;;;;;;;;;;7362494;19;1362;-66
2023/03/25 05:48:56;;;;;;;;;;;;;;;;;;7362135;19;842;-67
2023/03/25 05:51:24;;;;;;;;;;;;;;;;;;7363893;19;856;-67
2023/03/25 05:53:53;;;;;;;;;;;;;;;;;;7365307;19;1841;-67
2023/03/25 05:56:21;;;;;;;;;;;;;;;;;;7361693;19;1309;-67
2023/03/25 05:58:49;;;;;;;;;;;;;;;;;;7362933;19;819;-67
2023/03/25 06:01:18;;;;;;;;;;;;;;;;;;7364364;19;854;-66
2023/03/25 06:03:46;;;;;;;;;;;;;;;;;;7364447;19;680;-67
2023/03/25 06:06:17;;;;;;;;;;;;;;;;;;7363266;19;1313;-67
2023/03/25 06:08:45;;;;;;;;;;;;;;;;;;7367060;19;755;-66
2023/03/25 06:11:14;;;;;;;;;;;;;;;;;;7372176;19;1913;-68
2023/03/25 06:13:48;;;;;;;;;;;;;;;;;;7367747;19;1933;-67
2023/03/25 06:16:17;;;;;;;;;;;;;;;;;;7368363;19;1301;-66
2023/03/25 06:18:49;;;;;;;;;;;;;;;;;;7368475;19;862;-66
2023/03/25 06:21:17;;;;;;;;;;;;;;;;;;7370162;19;862;-66
2023/03/25 06:23:46;;;;;;;;;;;;;;;;;;7368797;19;794;-67
2023/03/25 06:26:15;;;;;;;;;;;;;;;;;;7371995;19;2240;-66
2023/03/25 06:28:43;;;;;;;;;;;;;;;;;;7369872;19;1796;-67
2023/03/25 06:31:11;;;;;;;;;;;;;;;;;;7368386;19;822;-67
2023/03/25 06:33:40;;;;;;;;;;;;;;;;;;7367755;19;1815;-66
2023/03/25 06:36:08;;;;;;;;;;;;;;;;;;7367494;19;1333;-67
2023/03/25 06:38:36;;;;;;;;;;;;;;;;;;7368686;19;830;-67
2023/03/25 06:41:09;;;;;;;;;;;;;;;;;;7367405;19;733;-67
2023/03/25 06:43:38;;;;;;;;;;;;;;;;;;7368057;19;823;-68
2023/03/25 06:46:25;;;;;;;;;;;;;;;;;;7367436;19;1279;-68
2023/03/25 06:49:12;;;;;;;;;;;;;;;;;;7369713;19;874;-69
2023/03/25 06:51:40;;;;;;;;;;;;;;;;;;7369032;19;799;-69
2023/03/25 06:54:08;;;;;;;;;;;;;;;;;;7367785;19;1855;-68
2023/03/25 06:56:36;;;;;;;;;;;;;;;;;;7371213;19;2115;-68
2023/03/25 06:59:05;;;;;;;;;;;;;;;;;;7370076;19;1848;-68
2023/03/25 07:01:33;;;;;;;;;;;;;;;;;;7368973;19;802;-68
2023/03/25 07:04:01;;;;;;;;;;;;;;;;;;7367204;19;838;-68
2023/03/25 07:06:29;;;;;;;;;;;;;;;;;;7371752;19;2033;-68
2023/03/25 07:08:57;;;;;;;;;;;;;;;;;;7373623;19;2078;-67
2023/03/25 07:11:25;;;;;;;;;;;;;;;;;;7371390;19;1842;-71
2023/03/25 07:13:54;;;;;;;;;;;;;;;;;;7367062;19;1874;-68
2023/03/25 07:16:22;;;;;;;;;;;;;;;;;;7367189;19;1341;-69
2023/03/25 07:18:51;;;;;;;;;;;;;;;;;;7365623;19;1856;-68
2023/03/25 07:21:19;;;;;;;;;;;;;;;;;;7370412;19;2136;-66
2023/03/25 07:23:47;;;;;;;;;;;;;;;;;;7367044;19;1879;-67
2023/03/25 07:26:15;;;;;;;;;;;;;;;;;;7363978;19;1330;-67
2023/03/25 07:28:44;;;;;;;;;;;;;;;;;;7367233;19;2114;-66
2023/03/25 07:31:12;;;;;;;;;;;;;;;;;;7369290;19;1824;-67
2023/03/25 07:33:40;;;;;;;;;;;;;;;;;;7364424;19;1881;-66
2023/03/25 07:36:08;;;;;;;;;;;;;;;;;;7363181;19;1725;-68
2023/03/25 07:38:36;;;;;;;;;;;;;;;;;;7368123;19;1789;-68
2023/03/25 07:41:05;;;;;;;;;;;;;;;;;;7370058;19;1780;-68
2023/03/25 07:43:33;;;;;;;;;;;;;;;;;;7370698;19;1887;-68
2023/03/25 07:46:39;;;;;;;;;;;;;;;;;;7366739;19;1846;-68
2023/03/25 07:49:07;;;;;;;;;;;;;;;;;;7366767;19;885;-68
2023/03/25 07:51:35;;;;;;;;;;;;;;;;;;7367803;19;782;-66
2023/03/25 07:54:04;;;;;;;;;;;;;;;;;;7366743;19;1829;-67
2023/03/25 07:56:32;;;;;;;;;;;;;;;;;;7366224;19;1282;-67
2023/03/25 07:59:00;;;;;;;;;;;;;;;;;;7367434;19;865;-66
2023/03/25 08:01:28;;;;;;;;;;;;;;;;;;7368435;19;813;-67
2023/03/25 08:03:56;;;;;;;;;;;;;;;;;;7368320;19;827;-67
2023/03/25 08:06:25;;;;;;;;;;;;;;;;;;7365648;19;1270;-66
2023/03/25 08:08:54;;;;;;;;;;;;;;;;;;7368017;19;786;-66
2023/03/25 08:11:22;;;;;;;;;;;;;;;;;;7368133;19;857;-67
2023/03/25 08:13:50;;;;;;;;;;;;;;;;;;7369190;19;1845;-68
2023/03/25 08:16:19;;;;;;;;;;;;;;;;;;7365482;19;1266;-66
2023/03/25 08:18:51;;;;;;;;;;;;;;;;;;7365851;19;773;-67
2023/03/25 08:21:23;;;;;;;;;;;;;;;;;;7367983;19;799;-66
2023/03/25 08:23:53;;;;;;;;;;;;;;;;;;7365119;19;800;-68
2023/03/25 08:26:21;;;;;;;;;;;;;;;;;;7362300;19;1250;-67
2023/03/25 08:28:49;;;;;;;;;;;;;;;;;;7363826;19;873;-67
2023/03/25 08:31:19;;;;;;;;;;;;;;;;;;7367811;19;853;-66
2023/03/25 08:33:47;;;;;;;;;;;;;;;;;;7366901;19;926;-66
2023/03/25 08:36:18;;;;;;;;;;;;;;;;;;7363908;19;1853;-66
2023/03/25 08:38:46;;;;;;;;;;;;;;;;;;7366239;19;711;-67
2023/03/25 08:41:15;;;;;;;;;;;;;;;;;;7366505;19;872;-67
2023/03/25 08:43:43;;;;;;;;;;;;;;;;;;7365142;19;787;-66
2023/03/25 08:46:11;;;;;;;;;;;;;;;;;;7363311;19;1335;-67
2023/03/25 08:48:39;;;;;;;;;;;;;;;;;;7365857;19;804;-67
2023/03/25 08:51:07;;;;;;;;;;;;;;;;;;7365098;19;798;-65
2023/03/25 08:53:35;;;;;;;;;;;;;;;;;;7365223;19;723;-65
2023/03/25 08:56:04;;;;;;;;;;;;;;;;;;7362805;19;1851;-66
2023/03/25 08:58:32;;;;;;;;;;;;;;;;;;7364457;19;857;-67
2023/03/25 09:01:01;;;;;;;;;;;;;;;;;;7365487;19;964;-65
2023/03/25 09:03:29;;;;;;;;;;;;;;;;;;7364509;19;814;-66
2023/03/25 09:05:57;;;;;;;;;;;;;;;;;;7363241;19;1279;-66
2023/03/25 09:08:25;;;;;;;;;;;;;;;;;;7364362;19;819;-68
2023/03/25 09:10:53;;;;;;;;;;;;;;;;;;7365909;19;869;-67
2023/03/25 09:13:22;;;;;;;;;;;;;;;;;;7366230;19;814;-66
2023/03/25 09:15:50;;;;;;;;;;;;;;;;;;7363383;19;1849;-67
2023/03/25 09:18:18;;;;;;;;;;;;;;;;;;7369669;19;798;-66
2023/03/25 09:20:47;;;;;;;;;;;;;;;;;;7370957;19;842;-67
2023/03/25 09:23:15;;;;;;;;;;;;;;;;;;7370439;19;808;-66
2023/03/25 09:25:43;;;;;;;;;;;;;;;;;;7368541;19;1284;-66
2023/03/25 09:28:11;;;;;;;;;;;;;;;;;;7367551;19;866;-66
2023/03/25 09:30:40;;;;;;;;;;;;;;;;;;7370463;19;837;-65
2023/03/25 09:33:08;;;;;;;;;;;;;;;;;;7368537;19;803;-66
2023/03/25 09:35:36;;;;;;;;;;;;;;;;;;7367814;19;1857;-67
2023/03/25 09:38:04;;;;;;;;;;;;;;;;;;7367745;19;873;-68
2023/03/25 09:40:33;;;;;;;;;;;;;;;;;;7368543;19;830;-68
2023/03/25 09:43:01;;;;;;;;;;;;;;;;;;7369681;19;799;-67
2023/03/25 09:45:29;;;;;;;;;;;;;;;;;;7369380;19;1321;-66
2023/03/25 09:47:57;;;;;;;;;;;;;;;;;;7370270;19;821;-67
2023/03/25 09:50:26;;;;;;;;;;;;;;;;;;7370879;19;791;-67
2023/03/25 09:52:54;;;;;;;;;;;;;;;;;;7371053;19;767;-67
2023/03/25 09:55:23;;;;;;;;;;;;;;;;;;7370238;19;1842;-68
2023/03/25 09:57:51;;;;;;;;;;;;;;;;;;7369817;19;823;-67
2023/03/25 10:00:19;;;;;;;;;;;;;;;;;;7370411;19;794;-67
2023/03/25 10:02:47;;;;;;;;;;;;;;;;;;7370070;19;862;-66
2023/03/25 10:05:15;;;;;;;;;;;;;;;;;;7369079;19;1319;-66
2023/03/25 10:07:43;;;;;;;;;;;;;;;;;;7369046;19;794;-66
2023/03/25 10:10:12;;;;;;;;;;;;;;;;;;7370471;19;882;-67
2023/03/25 10:12:40;;;;;;;;;;;;;;;;;;7369820;19;865;-66
2023/03/25 10:15:08;;;;;;;;;;;;;;;;;;7368910;19;1848;-67
2023/03/25 10:17:36;;;;;;;;;;;;;;;;;;7368365;19;802;-66
2023/03/25 10:20:06;;;;;;;;;;;;;;;;;;7368674;19;911;-66
2023/03/25 10:22:35;;;;;;;;;;;;;;;;;;7368042;19;883;-65
2023/03/25 10:25:03;;;;;;;;;;;;;;;;;;7366989;19;1308;-65
2023/03/25 10:27:32;;;;;;;;;;;;;;;;;;7369437;19;870;-67
2023/03/25 10:30:00;;;;;;;;;;;;;;;;;;7368001;19;862;-66
2023/03/25 10:32:29;;;;;;;;;;;;;;;;;;7369369;19;815;-65
2023/03/25 10:34:57;;;;;;;;;;;;;;;;;;7368169;19;1857;-67
2023/03/25 10:37:27;;;;;;;;;;;;;;;;;;7370444;19;861;-67
2023/03/25 10:39:57;;;;;;;;;;;;;;;;;;7370556;19;914;-66
2023/03/25 10:42:25;;;;;;;;;;;;;;;;;;7369245;19;863;-67
2023/03/25 10:44:53;;;;;;;;;;;;;;;;;;7370217;19;1266;-68
2023/03/25 10:47:21;;;;;;;;;;;;;;;;;;7369238;19;866;-67
2023/03/25 10:49:50;;;;;;;;;;;;;;;;;;7368220;19;810;-66
2023/03/25 10:52:18;;;;;;;;;;;;;;;;;;7368086;19;790;-66
2023/03/25 10:54:46;;;;;;;;;;;;;;;;;;7368986;19;1841;-67
2023/03/25 10:57:14;;;;;;;;;;;;;;;;;;7369166;19;724;-67
2023/03/25 10:59:44;;;;;;;;;;;;;;;;;;7369076;19;819;-67
2023/03/25 11:02:12;;;;;;;;;;;;;;;;;;7369405;19;893;-66
2023/03/25 11:04:40;;;;;;;;;;;;;;;;;;7371321;19;1352;-67
2023/03/25 11:07:08;;;;;;;;;;;;;;;;;;7369484;19;814;-66
2023/03/25 11:09:37;;;;;;;;;;;;;;;;;;7371450;19;1123;-67
2023/03/25 11:12:05;;;;;;;;;;;;;;;;;;7368981;19;803;-66
2023/03/25 11:14:34;;;;;;;;;;;;;;;;;;7368118;19;1337;-65
2023/03/25 11:17:02;;;;;;;;;;;;;;;;;;7367835;19;1849;-66
2023/03/25 11:19:30;;;;;;;;;;;;;;;;;;7368499;19;810;-66
2023/03/25 11:21:58;;;;;;;;;;;;;;;;;;7367213;19;807;-66
2023/03/25 11:24:27;;;;;;;;;;;;;;;;;;7371879;19;824;-66
2023/03/25 11:26:55;;;;;;;;;;;;;;;;;;7369680;19;773;-65
2023/03/25 11:29:23;;;;;;;;;;;;;;;;;;7368510;19;810;-67
2023/03/25 11:31:51;;;;;;;;;;;;;;;;;;7367346;19;820;-66
2023/03/25 11:34:19;;;;;;;;;;;;;;;;;;7368809;19;860;-67
2023/03/25 11:36:48;;;;;;;;;;;;;;;;;;7365214;19;1842;-66
2023/03/25 11:39:16;;;;;;;;;;;;;;;;;;7369642;19;775;-66
2023/03/25 11:41:44;;;;;;;;;;;;;;;;;;7368520;19;870;-66
2023/03/25 11:44:12;;;;;;;;;;;;;;;;;;7368838;19;792;-65
2023/03/25 11:46:40;;;;;;;;;;;;;;;;;;7366265;19;1274;-65
2023/03/25 11:49:08;;;;;;;;;;;;;;;;;;7367265;19;845;-65
2023/03/25 11:51:37;;;;;;;;;;;;;;;;;;7368036;19;873;-66
2023/03/25 11:54:05;;;;;;;;;;;;;;;;;;7368732;19;797;-67
2023/03/25 11:56:33;;;;;;;;;;;;;;;;;;7365579;19;1891;-67
2023/03/25 11:59:01;;;;;;;;;;;;;;;;;;7368718;19;787;-67
2023/03/25 12:01:30;;;;;;;;;;;;;;;;;;7368666;19;797;-68
2023/03/25 12:03:58;;;;;;;;;;;;;;;;;;7368879;19;784;-66
2023/03/25 12:06:28;;;;;;;;;;;;;;;;;;7365627;19;1223;-68
2023/03/25 12:08:56;;;;;;;;;;;;;;;;;;7366992;19;772;-66
2023/03/25 12:11:25;;;;;;;;;;;;;;;;;;7369120;19;803;-67
2023/03/25 12:13:53;;;;;;;;;;;;;;;;;;7367568;19;774;-68
2023/03/25 12:16:21;;;;;;;;;;;;;;;;;;7366366;19;1838;-68
2023/03/25 12:18:49;;;;;;;;;;;;;;;;;;7366824;19;869;-68
2023/03/25 12:21:17;;;;;;;;;;;;;;;;;;7368104;19;770;-68
2023/03/25 12:23:46;;;;;;;;;;;;;;;;;;7367814;19;805;-67
2023/03/25 12:26:14;;;;;;;;;;;;;;;;;;7366002;19;1369;-67
2023/03/25 12:28:43;;;;;;;;;;;;;;;;;;7366602;19;906;-66
2023/03/25 12:31:11;;;;;;;;;;;;;;;;;;7369197;19;808;-66
2023/03/25 12:33:39;;;;;;;;;;;;;;;;;;7366792;19;803;-65
2023/03/25 12:36:08;;;;;;;;;;;;;;;;;;7365452;19;1869;-66
2023/03/25 12:38:36;;;;;;;;;;;;;;;;;;7366081;19;793;-67
2023/03/25 12:41:04;;;;;;;;;;;;;;;;;;7367061;19;816;-67
2023/03/25 12:43:32;;;;;;;;;;;;;;;;;;7366767;19;774;-67
2023/03/25 12:46:00;;;;;;;;;;;;;;;;;;7364986;19;1336;-67
2023/03/25 12:48:28;;;;;;;;;;;;;;;;;;7365831;19;966;-68
2023/03/25 12:50:57;;;;;;;;;;;;;;;;;;7366816;19;798;-67
2023/03/25 12:53:25;;;;;;;;;;;;;;;;;;7368123;19;762;-67
2023/03/25 12:55:53;;;;;;;;;;;;;;;;;;7364995;19;1853;-66
2023/03/25 12:58:21;;;;;;;;;;;;;;;;;;7366119;19;857;-67
2023/03/25 13:00:49;;;;;;;;;;;;;;;;;;7366408;19;865;-66
2023/03/25 13:03:18;;;;;;;;;;;;;;;;;;7366051;19;821;-66
2023/03/25 13:05:46;;;;;;;;;;;;;;;;;;7364377;19;1699;-66
2023/03/25 13:08:15;;;;;;;;;;;;;;;;;;7365513;19;852;-67
2023/03/25 13:10:43;;;;;;;;;;;;;;;;;;7366074;19;850;-67
2023/03/25 13:13:11;;;;;;;;;;;;;;;;;;7364501;19;825;-67
2023/03/25 13:15:39;;;;;;;;;;;;;;;;;;7361975;19;1841;-67
2023/03/25 13:18:08;;;;;;;;;;;;;;;;;;7366105;19;759;-67
2023/03/25 13:20:36;;;;;;;;;;;;;;;;;;7372066;19;770;-67
2023/03/25 13:23:04;;;;;;;;;;;;;;;;;;7370359;19;817;-67
2023/03/25 13:25:32;;;;;;;;;;;;;;;;;;7370507;19;1282;-66
2023/03/25 13:28:02;;;;;;;;;;;;;;;;;;7370721;19;813;-66
2023/03/25 13:30:31;;;;;;;;;;;;;;;;;;7369327;19;794;-67
2023/03/25 13:33:00;;;;;;;;;;;;;;;;;;7366806;19;878;-66
2023/03/25 13:35:28;;;;;;;;;;;;;;;;;;7366319;19;1853;-66
2023/03/25 13:37:57;;;;;;;;;;;;;;;;;;7367304;19;810;-67
2023/03/25 13:40:25;;;;;;;;;;;;;;;;;;7368036;19;847;-67
2023/03/25 13:42:53;;;;;;;;;;;;;;;;;;7368807;19;916;-68
2023/03/25 13:45:21;;;;;;;;;;;;;;;;;;7366679;19;1321;-68
2023/03/25 13:47:49;;;;;;;;;;;;;;;;;;7367330;19;877;-66
2023/03/25 13:50:18;;;;;;;;;;;;;;;;;;7366697;19;860;-66
2023/03/25 13:52:46;;;;;;;;;;;;;;;;;;7366886;19;820;-67
2023/03/25 13:55:14;;;;;;;;;;;;;;;;;;7366842;19;1247;-67
2023/03/25 13:57:42;;;;;;;;;;;;;;;;;;7362826;19;1850;-67
2023/03/25 14:00:10;;;;;;;;;;;;;;;;;;7363482;19;724;-68
2023/03/25 14:02:41;;;;;;;;;;;;;;;;;;7364272;19;739;-67
2023/03/25 14:05:10;;;;;;;;;;;;;;;;;;7363134;19;1332;-68
2023/03/25 14:07:38;;;;;;;;;;;;;;;;;;7363821;19;816;-68
2023/03/25 14:10:06;;;;;;;;;;;;;;;;;;7363113;19;810;-67
2023/03/25 14:12:34;;;;;;;;;;;;;;;;;;7364130;19;789;-67
2023/03/25 14:15:03;;;;;;;;;;;;;;;;;;7362667;19;1333;-68
2023/03/25 14:17:31;;;;;;;;;;;;;;;;;;7362445;19;1801;-68
2023/03/25 14:19:59;;;;;;;;;;;;;;;;;;7364788;19;691;-65
2023/03/25 14:22:28;;;;;;;;;;;;;;;;;;7363606;19;853;-66
2023/03/25 14:24:56;;;;;;;;;;;;;;;;;;7362323;19;1285;-66
2023/03/25 14:27:25;;;;;;;;;;;;;;;;;;7363123;19;895;-67
2023/03/25 14:29:53;;;;;;;;;;;;;;;;;;7368391;19;830;-66
2023/03/25 14:32:22;;;;;;;;;;;;;;;;;;7370433;19;951;-66
2023/03/25 14:34:50;;;;;;;;;;;;;;;;;;7368984;19;1290;-67
2023/03/25 14:37:20;;;;;;;;;;;;;;;;;;7367182;19;1860;-66
2023/03/25 14:39:48;;;;;;;;;;;;;;;;;;7369365;19;870;-66
2023/03/25 14:42:16;;;;;;;;;;;;;;;;;;7369563;19;762;-66
2023/03/25 14:44:48;;;;;;;;;;;;;;;;;;7369665;19;1329;-66
2023/03/25 14:47:19;;;;;;;;;;;;;;;;;;7370475;19;797;-67
2023/03/25 14:49:48;;;;;;;;;;;;;;;;;;7370538;19;684;-65
2023/03/25 14:52:17;;;;;;;;;;;;;;;;;;7370371;19;932;-66
2023/03/25 14:54:45;;;;;;;;;;;;;;;;;;7370092;19;1235;-66
2023/03/25 14:57:13;;;;;;;;;;;;;;;;;;7367152;19;1837;-66
2023/03/25 14:59:41;;;;;;;;;;;;;;;;;;7368815;19;798;-66
2023/03/25 15:02:09;;;;;;;;;;;;;;;;;;7369699;19;828;-68
2023/03/25 15:04:38;;;;;;;;;;;;;;;;;;7370299;19;1352;-67
2023/03/25 15:07:07;;;;;;;;;;;;;;;;;;7370129;19;941;-67
2023/03/25 15:09:35;;;;;;;;;;;;;;;;;;7367374;19;766;-68
2023/03/25 15:12:04;;;;;;;;;;;;;;;;;;7369131;19;940;-67
2023/03/25 15:14:32;;;;;;;;;;;;;;;;;;7368801;19;1345;-67
2023/03/25 15:17:00;;;;;;;;;;;;;;;;;;7368941;19;1857;-67
2023/03/25 15:19:29;;;;;;;;;;;;;;;;;;7372968;19;853;-67
2023/03/25 15:21:57;;;;;;;;;;;;;;;;;;7373121;19;894;-68
2023/03/25 15:24:25;;;;;;;;;;;;;;;;;;7374948;19;765;-67
2023/03/25 15:26:53;;;;;;;;;;;;;;;;;;7370190;19;1368;-69
2023/03/25 15:29:22;;;;;;;;;;;;;;;;;;7371822;19;849;-70
2023/03/25 15:31:50;;;;;;;;;;;;;;;;;;7371594;19;665;-69
2023/03/25 15:34:18;;;;;;;;;;;;;;;;;;7370681;19;810;-68
2023/03/25 15:36:47;;;;;;;;;;;;;;;;;;7367951;19;1871;-69
2023/03/25 15:39:15;;;;;;;;;;;;;;;;;;7370056;19;860;-68
2023/03/25 15:41:43;;;;;;;;;;;;;;;;;;7371259;19;861;-68
2023/03/25 15:44:13;;;;;;;;;;;;;;;;;;7368742;19;818;-68
2023/03/25 15:46:41;;;;;;;;;;;;;;;;;;7366080;19;1277;-68
2023/03/25 15:49:09;;;;;;;;;;;;;;;;;;7367661;19;809;-68
2023/03/25 15:51:38;;;;;;;;;;;;;;;;;;7368206;19;868;-68
2023/03/25 15:54:06;;;;;;;;;;;;;;;;;;7365494;19;782;-69
2023/03/25 15:56:34;;;;;;;;;;;;;;;;;;7365407;19;1839;-67
2023/03/25 15:59:04;;;;;;;;;;;;;;;;;;7367212;19;832;-68
2023/03/25 16:01:32;;;;;;;;;;;;;;;;;;7367029;19;861;-69
2023/03/25 16:04:00;;;;;;;;;;;;;;;;;;7367024;19;865;-68
2023/03/25 16:06:29;;;;;;;;;;;;;;;;;;7364650;19;1276;-68
2023/03/25 16:08:58;;;;;;;;;;;;;;;;;;7366448;19;879;-68
2023/03/25 16:11:26;;;;;;;;;;;;;;;;;;7367744;19;836;-67
2023/03/25 16:13:54;;;;;;;;;;;;;;;;;;7366812;19;943;-67
2023/03/25 16:16:23;;;;;;;;;;;;;;;;;;7365253;19;1849;-69
2023/03/25 16:18:53;;;;;;;;;;;;;;;;;;7365880;19;767;-68
2023/03/25 16:21:21;;;;;;;;;;;;;;;;;;7367595;19;714;-68
2023/03/25 16:23:49;;;;;;;;;;;;;;;;;;7366645;19;826;-68
2023/03/25 16:26:17;;;;;;;;;;;;;;;;;;7364292;19;1281;-68
2023/03/25 16:28:46;;;;;;;;;;;;;;;;;;7365921;19;779;-68
2023/03/25 16:31:14;;;;;;;;;;;;;;;;;;7365272;19;1030;-68
2023/03/25 16:33:42;;;;;;;;;;;;;;;;;;7367025;19;880;-68
2023/03/25 16:36:11;;;;;;;;;;;;;;;;;;7364224;19;1328;-68
2023/03/25 16:38:39;;;;;;;;;;;;;;;;;;7363275;19;1846;-68
2023/03/25 16:41:07;;;;;;;;;;;;;;;;;;7366509;19;797;-68
2023/03/25 16:43:35;;;;;;;;;;;;;;;;;;7365721;19;829;-68
2023/03/25 16:46:04;;;;;;;;;;;;;;;;;;7363681;19;1344;-67
2023/03/25 16:48:32;;;;;;;;;;;;;;;;;;7364597;19;848;-68
2023/03/25 16:51:00;;;;;;;;;;;;;;;;;;7363311;19;786;-68
2023/03/25 16:53:28;;;;;;;;;;;;;;;;;;7365245;19;810;-68
2023/03/25 16:55:56;;;;;;;;;;;;;;;;;;7364848;19;1272;-68
2023/03/25 16:58:25;;;;;;;;;;;;;;;;;;7362106;19;1832;-68
2023/03/25 17:00:54;;;;;;;;;;;;;;;;;;7366303;19;860;-69
2023/03/25 17:03:22;;;;;;;;;;;;;;;;;;7366437;19;802;-66
2023/03/25 17:05:50;;;;;;;;;;;;;;;;;;7364809;19;1310;-68
2023/03/25 17:08:18;;;;;;;;;;;;;;;;;;7366923;19;800;-68
2023/03/25 17:10:46;;;;;;;;;;;;;;;;;;7367427;19;803;-67
2023/03/25 17:13:15;;;;;;;;;;;;;;;;;;7366258;19;821;-68
2023/03/25 17:15:44;;;;;;;;;;;;;;;;;;7366960;19;1338;-69
2023/03/25 17:18:13;;;;;;;;;;;;;;;;;;7363904;19;1841;-68
2023/03/25 17:20:41;;;;;;;;;;;;;;;;;;7366693;19;821;-68
2023/03/25 17:23:09;;;;;;;;;;;;;;;;;;7366280;19;1688;-67
2023/03/25 17:25:37;;;;;;;;;;;;;;;;;;7364076;19;1207;-68